Time;durP1;ratioP1;P1;durP2;ratioP2;P2;SDS_P1;SDS_P2;PMS_P1;PMS_P2;Temp;Humidity;BMP_temperature;BMP_pressure;BME280_temperature;BME280_humidity;BME280_pressure;Samples;Min_cycle;Max_cycle;Signal;HPM_P1;HPM_P2
2022/07/17 00:00:51;;;;;;;5.13;1.80;;;11.40;99.90;;;;;;5012888;28;20502;-70
2022/07/17 00:03:18;;;;;;;5.32;2.05;;;11.30;99.90;;;;;;5006027;28;20112;-69
2022/07/17 00:05:44;;;;;;;5.55;1.85;;;11.30;99.90;;;;;;4992856;28;20040;-69
2022/07/17 00:08:12;;;;;;;5.40;1.77;;;11.20;99.90;;;;;;5011053;28;20511;-69
2022/07/17 00:10:40;;;;;;;6.30;1.80;;;11.20;99.90;;;;;;4997972;28;20038;-69
2022/07/17 00:13:06;;;;;;;3.42;2.13;;;11.20;99.90;;;;;;4994600;28;20088;-69
2022/07/17 00:15:32;;;;;;;4.75;2.10;;;11.10;99.90;;;;;;4997015;28;20057;-69
2022/07/17 00:17:59;;;;;;;3.05;1.77;;;11.10;99.90;;;;;;5011635;28;20057;-69
2022/07/17 00:20:26;;;;;;;2.85;1.70;;;11.00;99.90;;;;;;4994672;28;20049;-69
2022/07/17 00:22:54;;;;;;;6.10;1.98;;;11.00;99.90;;;;;;5029262;28;20537;-69
2022/07/17 00:25:21;;;;;;;7.80;2.30;;;11.00;99.90;;;;;;5026450;28;20073;-69
2022/07/17 00:27:46;;;;;;;6.63;2.10;;;11.00;99.90;;;;;;4996684;28;20367;-69
2022/07/17 00:30:13;;;;;;;4.00;1.70;;;11.00;99.90;;;;;;4977751;28;20062;-69
2022/07/17 00:32:39;;;;;;;5.20;1.90;;;11.00;99.90;;;;;;5012024;28;20057;-69
2022/07/17 00:35:05;;;;;;;5.78;2.17;;;10.90;99.90;;;;;;4978630;28;20038;-69
2022/07/17 00:37:31;;;;;;;4.05;2.03;;;10.90;99.90;;;;;;5029576;28;20584;-69
2022/07/17 00:39:56;;;;;;;4.20;2.30;;;10.90;99.90;;;;;;5025237;28;20077;-69
2022/07/17 00:42:22;;;;;;;7.60;2.20;;;10.80;99.90;;;;;;5011029;28;20038;-69
2022/07/17 00:44:48;;;;;;;4.00;1.80;;;10.80;99.90;;;;;;5009675;28;20030;-69
2022/07/17 00:47:19;;;;;;;8.50;1.80;;;10.70;99.90;;;;;;4994816;28;20050;-69
2022/07/17 00:49:46;;;;;;;4.38;2.10;;;10.70;99.90;;;;;;5027202;28;20117;-69
2022/07/17 00:52:13;;;;;;;3.67;2.10;;;10.60;99.90;;;;;;5012476;28;20081;-69
2022/07/17 00:54:40;;;;;;;4.82;1.83;;;10.60;99.90;;;;;;5026215;28;20042;-69
2022/07/17 00:57:08;;;;;;;4.60;2.30;;;10.50;99.90;;;;;;4994824;28;20581;-69
2022/07/17 00:59:35;;;;;;;3.42;2.03;;;10.50;99.90;;;;;;5010506;28;20117;-70
2022/07/17 01:02:07;;;;;;;6.85;2.13;;;10.50;99.90;;;;;;5010546;28;20516;-69
2022/07/17 01:04:34;;;;;;;5.93;2.08;;;10.40;99.90;;;;;;5016835;28;20046;-69
2022/07/17 01:07:00;;;;;;;4.90;2.08;;;10.40;99.90;;;;;;5025977;28;20034;-69
2022/07/17 01:09:27;;;;;;;3.35;1.75;;;10.40;99.90;;;;;;4996661;28;20041;-69
2022/07/17 01:11:54;;;;;;;5.70;2.20;;;10.40;99.90;;;;;;5011186;28;20038;-69
2022/07/17 01:14:21;;;;;;;3.55;1.58;;;10.30;99.90;;;;;;4996922;28;20129;-69
2022/07/17 01:16:48;;;;;;;4.30;2.05;;;10.30;99.90;;;;;;5025275;28;20045;-69
2022/07/17 01:19:13;;;;;;;4.90;2.05;;;10.20;99.90;;;;;;4997088;28;20128;-69
2022/07/17 01:21:45;;;;;;;3.33;1.95;;;10.30;99.90;;;;;;4990205;28;20133;-69
2022/07/17 01:24:11;;;;;;;5.80;2.40;;;10.30;99.90;;;;;;5030241;28;20029;-69
2022/07/17 01:26:40;;;;;;;4.80;2.50;;;10.20;99.90;;;;;;5009382;28;20429;-69
2022/07/17 01:29:06;;;;;;;8.25;2.50;;;10.20;99.90;;;;;;4996434;28;20099;-69
2022/07/17 01:31:31;;;;;;;5.95;2.03;;;10.20;99.90;;;;;;5025950;28;20050;-69
2022/07/17 01:34:00;;;;;;;6.70;2.55;;;10.10;99.90;;;;;;4995249;28;20046;-67
2022/07/17 01:36:26;;;;;;;4.82;1.83;;;10.10;99.90;;;;;;4992510;28;20120;-68
2022/07/17 01:38:52;;;;;;;4.22;2.38;;;10.10;99.90;;;;;;4993771;28;20529;-68
2022/07/17 01:41:18;;;;;;;4.45;1.77;;;10.20;99.90;;;;;;5027092;28;20087;-68
2022/07/17 01:43:44;;;;;;;3.45;1.90;;;10.10;99.90;;;;;;5022898;28;20046;-69
2022/07/17 01:46:09;;;;;;;3.60;1.60;;;10.10;99.90;;;;;;4992909;28;20589;-69
2022/07/17 01:48:35;;;;;;;4.82;1.75;;;10.10;99.90;;;;;;4993380;28;20072;-69
2022/07/17 01:51:03;;;;;;;8.95;2.05;;;10.10;99.90;;;;;;4992551;28;20057;-69
2022/07/17 01:53:28;;;;;;;6.78;1.85;;;10.10;99.90;;;;;;5024503;28;20045;-69
2022/07/17 01:55:54;;;;;;;6.28;1.75;;;10.00;99.90;;;;;;4998747;28;20073;-69
2022/07/17 01:58:20;;;;;;;5.30;2.55;;;10.00;99.90;;;;;;4990916;28;20053;-69
2022/07/17 02:00:46;;;;;;;7.45;2.15;;;10.00;99.90;;;;;;4994165;28;20516;-69
2022/07/17 02:03:11;;;;;;;5.18;2.00;;;10.00;99.90;;;;;;4991120;28;20049;-69
2022/07/17 02:05:37;;;;;;;4.22;1.90;;;10.00;99.90;;;;;;5025699;28;20046;-69
2022/07/17 02:08:03;;;;;;;6.15;2.38;;;10.00;99.90;;;;;;4991305;28;20109;-69
2022/07/17 02:10:28;;;;;;;3.28;2.33;;;10.00;99.90;;;;;;4978003;28;20046;-69
2022/07/17 02:12:54;;;;;;;6.53;2.47;;;10.00;99.90;;;;;;5023506;28;20037;-69
2022/07/17 02:15:20;;;;;;;5.78;2.38;;;9.90;99.90;;;;;;4998189;28;20120;-69
2022/07/17 02:17:46;;;;;;;4.28;2.30;;;9.90;99.90;;;;;;5009382;28;20046;-69
2022/07/17 02:20:12;;;;;;;2.80;2.00;;;9.90;99.90;;;;;;4982576;28;20061;-69
2022/07/17 02:22:39;;;;;;;7.13;2.30;;;9.90;99.90;;;;;;4993940;28;20057;-69
2022/07/17 02:25:06;;;;;;;4.82;2.30;;;9.90;99.90;;;;;;5023280;28;20038;-69
2022/07/17 02:27:32;;;;;;;6.97;3.00;;;9.90;99.90;;;;;;4992118;28;20400;-69
2022/07/17 02:30:00;;;;;;;3.72;2.20;;;9.90;99.90;;;;;;5027839;28;20130;-69
2022/07/17 02:32:26;;;;;;;3.30;1.80;;;10.00;99.90;;;;;;5023072;28;20041;-69
2022/07/17 02:34:52;;;;;;;4.50;2.35;;;9.90;99.90;;;;;;5009220;28;20069;-69
2022/07/17 02:37:17;;;;;;;4.55;2.20;;;9.90;99.90;;;;;;4992886;28;20030;-69
2022/07/17 02:39:52;;;;;;;4.95;2.10;;;9.90;99.90;;;;;;4992063;28;20125;-69
2022/07/17 02:42:22;;;;;;;5.50;2.50;;;9.90;99.90;;;;;;4990812;28;20072;-69
2022/07/17 02:44:49;;;;;;;3.92;2.30;;;9.90;99.90;;;;;;4992182;28;20405;-69
2022/07/17 02:47:26;;;;;;;4.95;2.00;;;9.90;99.90;;;;;;4994077;28;20133;-69
2022/07/17 02:49:52;;;;;;;4.18;1.80;;;9.90;99.90;;;;;;4991539;28;20050;-69
2022/07/17 02:52:18;;;;;;;3.85;2.00;;;9.90;99.90;;;;;;5009248;28;20049;-69
2022/07/17 02:54:44;;;;;;;5.15;2.13;;;9.90;99.90;;;;;;4991656;28;20044;-69
2022/07/17 02:57:10;;;;;;;5.75;2.80;;;9.90;99.90;;;;;;4991705;28;20420;-69
2022/07/17 02:59:36;;;;;;;6.15;2.70;;;9.90;99.90;;;;;;4991593;28;20133;-69
2022/07/17 03:02:02;;;;;;;4.15;2.63;;;9.80;99.90;;;;;;4993354;28;20470;-69
2022/07/17 03:04:28;;;;;;;5.55;2.33;;;9.90;99.90;;;;;;4993080;28;20348;-69
2022/07/17 03:06:53;;;;;;;3.50;1.70;;;9.80;99.90;;;;;;5009315;28;20040;-69
2022/07/17 03:09:19;;;;;;;3.50;1.70;;;9.80;99.90;;;;;;4991755;28;20041;-69
2022/07/17 03:11:45;;;;;;;4.95;2.05;;;9.90;99.90;;;;;;4994317;28;20373;-69
2022/07/17 03:14:10;;;;;;;5.18;1.88;;;9.80;99.90;;;;;;5009221;28;20132;-69
2022/07/17 03:16:36;;;;;;;7.78;2.10;;;9.80;99.90;;;;;;4993531;28;20061;-69
2022/07/17 03:19:02;;;;;;;4.30;1.88;;;9.80;99.90;;;;;;5009929;28;20077;-69
2022/07/17 03:21:27;;;;;;;4.82;2.00;;;9.60;99.90;;;;;;4990071;28;20069;-69
2022/07/17 03:23:53;;;;;;;4.70;1.52;;;9.70;99.90;;;;;;5007357;28;20529;-69
2022/07/17 03:26:19;;;;;;;7.40;1.98;;;9.70;99.90;;;;;;5023539;28;20449;-69
2022/07/17 03:28:44;;;;;;;2.95;1.30;;;9.70;99.90;;;;;;4990974;28;20046;-69
2022/07/17 03:31:10;;;;;;;5.10;2.00;;;9.70;99.90;;;;;;4992818;28;20546;-69
2022/07/17 03:33:35;;;;;;;6.13;2.38;;;9.60;99.90;;;;;;5008340;28;20055;-69
2022/07/17 03:36:01;;;;;;;3.35;1.65;;;9.60;99.90;;;;;;4992883;28;20042;-69
2022/07/17 03:38:27;;;;;;;3.97;1.98;;;9.60;99.90;;;;;;4992440;28;20483;-69
2022/07/17 03:40:53;;;;;;;4.05;1.67;;;9.60;99.90;;;;;;5024297;28;20124;-69
2022/07/17 03:43:18;;;;;;;3.35;1.92;;;9.60;99.90;;;;;;4991017;28;20132;-69
2022/07/17 03:45:44;;;;;;;3.47;2.10;;;9.50;99.90;;;;;;5009554;28;20030;-69
2022/07/17 03:48:10;;;;;;;2.97;1.80;;;9.50;99.90;;;;;;5026918;28;20543;-69
2022/07/17 03:50:35;;;;;;;3.88;1.80;;;9.50;99.90;;;;;;5023792;28;20555;-69
2022/07/17 03:53:01;;;;;;;2.95;2.25;;;9.40;99.90;;;;;;5025223;28;20049;-69
2022/07/17 03:55:27;;;;;;;4.78;2.03;;;9.40;99.90;;;;;;5025111;28;20394;-69
2022/07/17 03:57:52;;;;;;;2.50;1.75;;;9.40;99.90;;;;;;4975020;28;20050;-69
2022/07/17 04:00:18;;;;;;;4.05;1.98;;;9.40;99.90;;;;;;5005193;28;20137;-69
2022/07/17 04:02:44;;;;;;;5.90;1.80;;;9.40;99.90;;;;;;5021026;28;20060;-69
2022/07/17 04:05:11;;;;;;;5.22;1.77;;;9.40;99.90;;;;;;4995074;28;20041;-69
2022/07/17 04:07:40;;;;;;;8.10;2.38;;;9.40;99.90;;;;;;5021137;28;20050;-69
2022/07/17 04:10:08;;;;;;;5.15;2.20;;;9.50;99.90;;;;;;4993363;28;20049;-69
2022/07/17 04:12:34;;;;;;;7.05;2.22;;;9.50;99.90;;;;;;5022112;28;20524;-69
2022/07/17 04:15:00;;;;;;;7.13;3.75;;;9.60;99.90;;;;;;4993650;28;20120;-69
2022/07/17 04:17:26;;;;;;;6.20;2.90;;;9.60;99.90;;;;;;5022990;28;20121;-69
2022/07/17 04:19:52;;;;;;;3.88;2.47;;;9.70;99.90;;;;;;4994377;28;20520;-69
2022/07/17 04:22:18;;;;;;;4.07;2.00;;;9.70;99.90;;;;;;5026714;28;20422;-69
2022/07/17 04:24:44;;;;;;;4.97;2.42;;;9.80;99.90;;;;;;4997726;28;20132;-69
2022/07/17 04:27:10;;;;;;;3.92;2.33;;;9.80;99.90;;;;;;5006316;28;20096;-69
2022/07/17 04:29:36;;;;;;;5.97;2.85;;;9.90;99.90;;;;;;5009489;28;20075;-69
2022/07/17 04:32:03;;;;;;;4.68;2.72;;;9.90;99.90;;;;;;4994876;28;20508;-69
2022/07/17 04:34:29;;;;;;;4.90;2.38;;;10.00;99.90;;;;;;4982435;28;20038;-70
2022/07/17 04:36:55;;;;;;;3.33;2.30;;;10.10;99.90;;;;;;5024410;28;20092;-70
2022/07/17 04:39:21;;;;;;;4.03;2.13;;;10.20;99.90;;;;;;4993481;28;20042;-70
2022/07/17 04:41:47;;;;;;;4.18;2.53;;;10.30;99.90;;;;;;5013734;28;20049;-70
2022/07/17 04:44:12;;;;;;;7.03;2.13;;;10.30;99.90;;;;;;5014298;28;20088;-68
2022/07/17 04:46:38;;;;;;;6.95;2.35;;;10.40;99.90;;;;;;5013980;28;20076;-68
2022/07/17 04:49:04;;;;;;;4.95;2.00;;;10.50;99.90;;;;;;5011477;28;20481;-68
2022/07/17 04:51:29;;;;;;;7.93;2.30;;;10.50;99.90;;;;;;5013534;28;20037;-68
2022/07/17 04:53:56;;;;;;;6.18;2.67;;;10.60;99.90;;;;;;5033945;28;20049;-68
2022/07/17 04:56:22;;;;;;;7.38;2.85;;;10.70;99.90;;;;;;5020661;28;20125;-68
2022/07/17 04:58:47;;;;;;;4.22;2.45;;;10.80;99.90;;;;;;4997872;28;20347;-68
2022/07/17 05:01:13;;;;;;;3.42;2.30;;;10.90;99.90;;;;;;5000457;28;20056;-68
2022/07/17 05:03:39;;;;;;;7.15;2.40;;;11.00;99.90;;;;;;5030436;28;20132;-68
2022/07/17 05:06:05;;;;;;;4.60;2.10;;;11.10;99.90;;;;;;5019279;28;20034;-69
2022/07/17 05:08:31;;;;;;;3.25;2.15;;;11.20;99.90;;;;;;5029026;28;20053;-68
2022/07/17 05:10:57;;;;;;;4.30;2.20;;;11.30;99.90;;;;;;5003117;28;20049;-68
2022/07/17 05:13:22;;;;;;;6.80;2.08;;;11.50;99.90;;;;;;5029625;28;20057;-69
2022/07/17 05:15:49;;;;;;;8.93;2.10;;;11.60;99.90;;;;;;5016514;28;20052;-69
2022/07/17 05:18:15;;;;;;;5.00;2.00;;;11.70;99.90;;;;;;4994317;28;20053;-69
2022/07/17 05:20:41;;;;;;;7.88;2.45;;;11.80;99.90;;;;;;4996678;28;20036;-69
2022/07/17 05:23:06;;;;;;;6.22;2.10;;;11.80;99.90;;;;;;5016944;28;20077;-69
2022/07/17 05:25:32;;;;;;;5.13;1.60;;;11.90;99.90;;;;;;5035354;28;20763;-69
2022/07/17 05:27:58;;;;;;;7.50;2.05;;;12.00;99.90;;;;;;5024775;28;20060;-69
2022/07/17 05:30:24;;;;;;;5.70;1.67;;;12.00;99.90;;;;;;5016487;28;20038;-69
2022/07/17 05:32:49;;;;;;;6.55;1.90;;;12.10;99.90;;;;;;5001498;28;20042;-69
2022/07/17 05:35:15;;;;;;;4.15;1.63;;;12.20;99.90;;;;;;5037380;28;20038;-69
2022/07/17 05:37:41;;;;;;;2.70;1.48;;;12.30;99.90;;;;;;5031892;28;20072;-69
2022/07/17 05:40:08;;;;;;;2.00;1.20;;;12.40;99.90;;;;;;5033207;28;20105;-69
2022/07/17 05:42:33;;;;;;;3.92;1.75;;;12.40;99.90;;;;;;4977191;28;20058;-69
2022/07/17 05:44:59;;;;;;;4.22;1.27;;;12.50;99.90;;;;;;5031539;28;20060;-69
2022/07/17 05:47:25;;;;;;;4.93;1.67;;;12.60;99.90;;;;;;4998923;28;20053;-69
2022/07/17 05:49:51;;;;;;;4.30;1.60;;;12.60;99.90;;;;;;5028702;28;20462;-69
2022/07/17 05:52:17;;;;;;;4.70;1.38;;;12.70;99.90;;;;;;5001222;28;20042;-69
2022/07/17 05:54:43;;;;;;;6.03;1.67;;;12.80;99.90;;;;;;5032688;28;20052;-69
2022/07/17 05:57:08;;;;;;;5.43;1.30;;;12.90;99.90;;;;;;4997837;28;20054;-69
2022/07/17 05:59:34;;;;;;;4.63;2.08;;;13.00;99.90;;;;;;5011220;28;20135;-69
2022/07/17 06:02:00;;;;;;;5.43;1.30;;;13.10;99.90;;;;;;5030907;28;20386;-69
2022/07/17 06:04:26;;;;;;;5.05;1.50;;;13.20;99.90;;;;;;5014424;28;20041;-69
2022/07/17 06:06:52;;;;;;;6.90;1.30;;;13.30;99.90;;;;;;4978055;28;20104;-69
2022/07/17 06:09:17;;;;;;;5.38;1.20;;;13.50;99.90;;;;;;5013143;28;20110;-69
2022/07/17 06:11:43;;;;;;;4.65;1.30;;;13.60;99.90;;;;;;5031155;28;20062;-69
2022/07/17 06:14:09;;;;;;;4.05;1.13;;;13.60;99.90;;;;;;5010447;28;20033;-69
2022/07/17 06:16:34;;;;;;;6.93;1.25;;;13.70;99.90;;;;;;5010859;28;20030;-69
2022/07/17 06:19:00;;;;;;;5.75;1.30;;;13.70;99.90;;;;;;4990625;28;20505;-69
2022/07/17 06:21:26;;;;;;;2.83;1.10;;;13.80;99.90;;;;;;5010322;28;20529;-69
2022/07/17 06:23:51;;;;;;;5.88;1.30;;;13.90;99.90;;;;;;4991097;28;20053;-69
2022/07/17 06:26:17;;;;;;;6.45;1.20;;;14.00;99.90;;;;;;5024177;28;20481;-69
2022/07/17 06:28:43;;;;;;;5.03;0.95;;;14.10;99.90;;;;;;5010712;28;20373;-69
2022/07/17 06:31:09;;;;;;;7.60;0.98;;;14.30;99.90;;;;;;4995209;28;20056;-69
2022/07/17 06:33:34;;;;;;;5.18;1.33;;;14.40;99.90;;;;;;4995257;28;20414;-69
2022/07/17 06:36:01;;;;;;;6.22;1.15;;;14.60;99.90;;;;;;5009128;28;20040;-69
2022/07/17 06:38:26;;;;;;;9.50;1.27;;;14.70;99.90;;;;;;5025452;28;20057;-69
2022/07/17 06:40:52;;;;;;;4.38;1.00;;;14.90;99.90;;;;;;4991431;28;20058;-69
2022/07/17 06:43:18;;;;;;;3.40;1.00;;;15.00;99.90;;;;;;5012033;28;20409;-69
2022/07/17 06:45:44;;;;;;;4.50;0.60;;;15.10;99.90;;;;;;5030056;28;20037;-69
2022/07/17 06:48:09;;;;;;;7.88;0.73;;;15.30;99.90;;;;;;5013171;28;20045;-69
2022/07/17 06:50:35;;;;;;;4.53;1.00;;;15.50;99.90;;;;;;5009972;28;20069;-69
2022/07/17 06:53:01;;;;;;;4.43;1.00;;;15.60;99.90;;;;;;5010019;28;20038;-69
2022/07/17 06:55:26;;;;;;;6.70;0.88;;;15.80;99.90;;;;;;5011301;28;20046;-69
2022/07/17 06:57:52;;;;;;;4.10;0.60;;;15.90;99.90;;;;;;4992504;28;20065;-69
2022/07/17 07:00:18;;;;;;;6.40;0.50;;;16.00;99.90;;;;;;4979343;28;20056;-69
2022/07/17 07:02:44;;;;;;;10.30;0.88;;;16.10;99.90;;;;;;4990826;28;20056;-69
2022/07/17 07:05:10;;;;;;;3.10;0.70;;;16.30;99.90;;;;;;5010344;28;20436;-69
2022/07/17 07:07:37;;;;;;;5.63;0.70;;;16.40;99.90;;;;;;5009984;28;20247;-69
2022/07/17 07:10:03;;;;;;;8.18;1.27;;;16.50;99.90;;;;;;5008159;28;20385;-69
2022/07/17 07:12:30;;;;;;;4.00;0.65;;;16.70;99.90;;;;;;5010072;28;20545;-69
2022/07/17 07:14:56;;;;;;;5.13;0.80;;;16.70;99.90;;;;;;4995111;28;20088;-69
2022/07/17 07:17:21;;;;;;;6.45;0.68;;;16.90;99.90;;;;;;5025595;28;20074;-70
2022/07/17 07:19:47;;;;;;;4.00;0.82;;;17.00;99.90;;;;;;4997946;28;20045;-69
2022/07/17 07:22:13;;;;;;;7.80;1.00;;;17.10;99.90;;;;;;5011344;28;20381;-70
2022/07/17 07:24:38;;;;;;;4.45;0.47;;;17.30;99.90;;;;;;4992304;28;20391;-70
2022/07/17 07:27:04;;;;;;;4.18;0.50;;;17.50;99.90;;;;;;5029525;28;20049;-70
2022/07/17 07:29:30;;;;;;;4.75;0.70;;;17.70;99.90;;;;;;5010850;28;20045;-69
2022/07/17 07:31:56;;;;;;;4.72;0.63;;;18.00;99.90;;;;;;5009877;28;20037;-69
2022/07/17 07:34:21;;;;;;;5.65;0.70;;;18.20;99.90;;;;;;5007132;28;20450;-69
2022/07/17 07:36:47;;;;;;;6.78;0.73;;;18.50;99.90;;;;;;4996486;28;20045;-69
2022/07/17 07:39:13;;;;;;;2.92;0.45;;;18.60;99.90;;;;;;5026197;28;20060;-69
2022/07/17 07:41:38;;;;;;;5.60;0.63;;;18.60;99.90;;;;;;4997543;28;20046;-69
2022/07/17 07:44:04;;;;;;;4.85;0.82;;;18.60;99.90;;;;;;4992327;28;20054;-69
2022/07/17 07:46:30;;;;;;;4.75;0.90;;;18.60;99.90;;;;;;5010400;28;20053;-69
2022/07/17 07:48:55;;;;;;;4.43;0.63;;;18.70;99.90;;;;;;5009936;28;20116;-69
2022/07/17 07:51:21;;;;;;;2.33;0.50;;;18.80;99.90;;;;;;5028046;28;20084;-69
2022/07/17 07:53:47;;;;;;;3.67;0.60;;;18.90;99.80;;;;;;5013497;28;20050;-69
2022/07/17 07:56:12;;;;;;;6.38;0.43;;;18.90;98.30;;;;;;5031323;28;20045;-69
2022/07/17 07:58:38;;;;;;;6.22;0.77;;;18.90;98.10;;;;;;5015409;28;20049;-68
2022/07/17 08:01:04;;;;;;;2.47;0.60;;;18.90;98.00;;;;;;5029301;28;20137;-69
2022/07/17 08:03:30;;;;;;;2.72;0.52;;;19.00;98.50;;;;;;5014088;28;20489;-69
2022/07/17 08:05:56;;;;;;;2.95;0.40;;;19.10;96.80;;;;;;5012820;28;20482;-69
2022/07/17 08:08:21;;;;;;;2.50;0.52;;;19.40;97.30;;;;;;4995075;28;20586;-69
2022/07/17 08:10:47;;;;;;;3.28;0.60;;;20.00;97.00;;;;;;5027006;28;20097;-69
2022/07/17 08:13:13;;;;;;;3.47;0.52;;;20.50;95.40;;;;;;5025962;28;20058;-69
2022/07/17 08:15:39;;;;;;;3.45;0.70;;;21.00;94.40;;;;;;5006977;28;20069;-67
2022/07/17 08:18:06;;;;;;;4.28;0.60;;;21.30;91.90;;;;;;5009507;28;20042;-67
2022/07/17 08:20:31;;;;;;;4.50;0.60;;;21.40;90.40;;;;;;5012848;28;20055;-67
2022/07/17 08:22:57;;;;;;;5.05;0.70;;;21.60;90.60;;;;;;5005982;28;20545;-67
2022/07/17 08:25:23;;;;;;;6.22;0.60;;;21.90;90.60;;;;;;5012486;28;20065;-67
2022/07/17 08:27:49;;;;;;;4.25;0.60;;;22.20;85.20;;;;;;5012426;28;20505;-67
2022/07/17 08:30:15;;;;;;;2.63;0.38;;;22.50;84.10;;;;;;5013306;28;20375;-66
2022/07/17 08:32:41;;;;;;;3.20;0.43;;;22.60;81.20;;;;;;5013324;28;20092;-66
2022/07/17 08:35:08;;;;;;;5.85;0.80;;;22.80;78.80;;;;;;5012078;28;20383;-67
2022/07/17 08:37:51;;;;;;;3.92;0.73;;;22.90;75.30;;;;;;5010259;28;20042;-68
2022/07/17 08:40:22;;;;;;;3.63;0.68;;;23.10;69.40;;;;;;5024674;28;20153;-65
2022/07/17 08:42:50;;;;;;;2.85;0.40;;;23.30;71.60;;;;;;5009967;28;20050;-70
2022/07/17 08:45:16;;;;;;;4.55;0.75;;;23.40;71.40;;;;;;4992910;28;20052;-70
2022/07/17 08:47:41;;;;;;;4.28;0.57;;;23.60;73.90;;;;;;4997745;28;20076;-70
2022/07/17 08:50:09;;;;;;;2.58;0.50;;;23.80;72.90;;;;;;5015450;28;20448;-70
2022/07/17 08:52:40;;;;;;;3.58;0.52;;;23.70;68.90;;;;;;5029314;28;20053;-70
2022/07/17 08:55:13;;;;;;;3.28;0.65;;;23.80;68.80;;;;;;5012712;28;20401;-70
2022/07/17 08:57:40;;;;;;;5.70;0.40;;;23.80;65.70;;;;;;5028371;28;20058;-70
2022/07/17 09:00:07;;;;;;;4.65;0.95;;;23.70;67.60;;;;;;5031613;28;20050;-70
2022/07/17 09:02:35;;;;;;;2.05;0.50;;;23.80;67.90;;;;;;4996089;28;20092;-70
2022/07/17 09:05:01;;;;;;;3.47;0.60;;;23.90;66.90;;;;;;5028663;28;20065;-70
2022/07/17 09:07:26;;;;;;;2.35;0.60;;;23.90;66.20;;;;;;4993596;28;20466;-70
2022/07/17 09:09:52;;;;;;;3.25;0.50;;;24.00;65.10;;;;;;5013176;28;20057;-70
2022/07/17 09:12:26;;;;;;;2.25;0.40;;;24.00;64.50;;;;;;5023765;28;20052;-70
2022/07/17 09:14:51;;;;;;;2.53;0.50;;;24.10;63.50;;;;;;4996058;28;20133;-70
2022/07/17 09:17:17;;;;;;;4.95;0.80;;;24.00;63.40;;;;;;5026924;28;20055;-70
2022/07/17 09:19:46;;;;;;;2.92;0.52;;;23.80;63.40;;;;;;4981533;28;20069;-69
2022/07/17 09:22:18;;;;;;;5.57;0.50;;;23.80;63.40;;;;;;5010460;28;20585;-69
2022/07/17 09:24:55;;;;;;;2.30;0.40;;;24.00;62.60;;;;;;4998444;28;20707;-69
2022/07/17 09:27:24;;;;;;;2.88;0.50;;;24.30;62.60;;;;;;5011373;28;20042;-70
2022/07/17 09:29:52;;;;;;;2.42;0.60;;;24.60;64.30;;;;;;5010419;28;20056;-70
2022/07/17 09:32:21;;;;;;;5.07;0.80;;;24.90;63.00;;;;;;5011906;28;20041;-70
2022/07/17 09:34:48;;;;;;;3.88;0.60;;;25.00;59.30;;;;;;4998026;28;20092;-70
2022/07/17 09:37:14;;;;;;;3.25;0.43;;;24.70;59.60;;;;;;5028874;28;20124;-70
2022/07/17 09:39:40;;;;;;;3.63;0.60;;;24.50;59.70;;;;;;4999106;28;20490;-70
2022/07/17 09:42:06;;;;;;;2.47;0.50;;;24.50;60.40;;;;;;5011243;28;20504;-70
2022/07/17 09:44:32;;;;;;;2.55;0.70;;;24.60;61.60;;;;;;4997179;28;20120;-70
2022/07/17 09:46:57;;;;;;;3.38;0.50;;;24.80;60.50;;;;;;4992152;28;20046;-70
2022/07/17 09:49:27;;;;;;;2.40;0.80;;;24.90;61.00;;;;;;5011989;28;20109;-70
2022/07/17 09:51:53;;;;;;;3.08;0.32;;;25.10;58.30;;;;;;5012108;28;20500;-70
2022/07/17 09:54:23;;;;;;;1.63;0.40;;;25.10;59.40;;;;;;5012572;28;20069;-70
2022/07/17 09:56:58;;;;;;;3.65;0.93;;;25.20;58.70;;;;;;5009937;28;20037;-70
2022/07/17 09:59:29;;;;;;;7.70;2.55;;;25.20;59.10;;;;;;4991966;28;20139;-70
2022/07/17 10:01:55;;;;;;;3.80;0.85;;;25.00;57.40;;;;;;4994245;28;20041;-70
2022/07/17 10:04:21;;;;;;;5.20;0.75;;;25.10;60.70;;;;;;4993361;28;20053;-70
2022/07/17 10:06:47;;;;;;;2.45;0.63;;;25.40;60.10;;;;;;4994371;28;20049;-70
2022/07/17 10:09:13;;;;;;;4.25;0.60;;;25.70;59.00;;;;;;4994040;28;20045;-70
2022/07/17 10:11:41;;;;;;;2.65;0.63;;;25.90;58.80;;;;;;5011055;28;20033;-70
2022/07/17 10:14:12;;;;;;;1.75;0.60;;;26.10;57.30;;;;;;5026500;28;20466;-70
2022/07/17 10:16:38;;;;;;;2.65;0.57;;;26.20;54.70;;;;;;5031391;28;20103;-69
2022/07/17 10:19:24;;;;;;;2.67;0.50;;;26.00;54.90;;;;;;5010704;28;20116;-70
2022/07/17 10:21:55;;;;;;;3.10;0.52;;;26.20;55.30;;;;;;5032335;28;20113;-71
2022/07/17 10:24:21;;;;;;;1.73;0.43;;;26.30;54.10;;;;;;4992974;28;20054;-70
2022/07/17 10:26:49;;;;;;;4.07;0.50;;;26.40;55.00;;;;;;4980826;28;20128;-70
2022/07/17 10:29:34;;;;;;;3.58;0.60;;;26.50;54.60;;;;;;4990482;28;20046;-70
2022/07/17 10:32:03;;;;;;;2.00;0.50;;;26.60;52.50;;;;;;4996743;28;20037;-70
2022/07/17 10:34:43;;;;;;;3.15;0.50;;;26.50;52.80;;;;;;5010358;28;20099;-70
2022/07/17 10:37:16;;;;;;;3.00;0.63;;;26.50;53.40;;;;;;4995006;28;20049;-70
2022/07/17 10:39:56;;;;;;;2.70;0.70;;;26.40;52.90;;;;;;5011466;28;20640;-70
2022/07/17 10:42:45;;;;;;;2.58;0.60;;;26.40;51.90;;;;;;4978235;28;20066;-70
2022/07/17 10:45:13;;;;;;;4.15;0.52;;;26.40;52.70;;;;;;4991148;28;20046;-70
2022/07/17 10:47:54;;;;;;;2.13;0.60;;;26.30;55.10;;;;;;5009618;28;20042;-70
2022/07/17 10:50:38;;;;;;;2.95;0.40;;;26.50;54.10;;;;;;4990079;28;20050;-70
2022/07/17 10:53:12;;;;;;;2.17;0.60;;;26.60;54.60;;;;;;5010425;28;20521;-70
2022/07/17 10:55:41;;;;;;;1.60;0.60;;;26.90;54.50;;;;;;5025725;28;20159;-69
2022/07/17 10:58:29;;;;;;;3.10;0.70;;;26.90;52.70;;;;;;5029349;28;20049;-69
2022/07/17 11:01:05;;;;;;;1.17;0.52;;;27.20;53.40;;;;;;5010040;28;20092;-69
2022/07/17 11:03:36;;;;;;;3.13;0.60;;;27.50;53.30;;;;;;4997869;28;20509;-69
2022/07/17 11:06:08;;;;;;;1.33;0.60;;;27.70;52.70;;;;;;4993336;28;20053;-69
2022/07/17 11:08:41;;;;;;;3.85;0.60;;;28.00;51.20;;;;;;5007952;28;20425;-70
2022/07/17 11:11:07;;;;;;;2.00;0.50;;;28.10;49.50;;;;;;5005102;28;20117;-70
2022/07/17 11:13:32;;;;;;;2.15;0.73;;;28.00;48.80;;;;;;5031196;28;20119;-70
2022/07/17 11:15:58;;;;;;;2.85;0.60;;;27.90;51.00;;;;;;5011278;28;20091;-70
2022/07/17 11:18:24;;;;;;;4.55;0.80;;;28.10;49.60;;;;;;5009342;28;20074;-70
2022/07/17 11:20:56;;;;;;;2.92;0.80;;;28.10;50.20;;;;;;5011068;28;20038;-70
2022/07/17 11:23:23;;;;;;;2.08;0.63;;;28.10;50.30;;;;;;4991205;28;20057;-70
2022/07/17 11:25:58;;;;;;;2.75;0.70;;;27.90;49.90;;;;;;5010105;28;20172;-69
2022/07/17 11:28:30;;;;;;;1.95;0.70;;;27.90;48.20;;;;;;5007899;28;20045;-69
2022/07/17 11:30:56;;;;;;;2.15;0.70;;;27.70;49.90;;;;;;4991145;28;20128;-69
2022/07/17 11:33:22;;;;;;;1.60;0.40;;;27.70;50.80;;;;;;5010362;28;20124;-69
2022/07/17 11:35:47;;;;;;;3.30;0.63;;;27.80;50.30;;;;;;5010833;28;20044;-69
2022/07/17 11:38:13;;;;;;;2.35;0.68;;;28.00;48.40;;;;;;5010176;28;20604;-69
2022/07/17 11:40:47;;;;;;;3.20;0.47;;;28.20;49.00;;;;;;5009848;28;20120;-69
2022/07/17 11:43:12;;;;;;;2.22;0.80;;;28.40;48.20;;;;;;5009166;28;20556;-69
2022/07/17 11:45:39;;;;;;;2.60;0.85;;;28.20;47.90;;;;;;5026633;28;20134;-70
2022/07/17 11:48:06;;;;;;;2.53;0.70;;;28.20;47.40;;;;;;5024575;28;20054;-69
2022/07/17 11:50:31;;;;;;;2.65;0.70;;;28.00;47.20;;;;;;5026692;28;20598;-69
2022/07/17 11:53:02;;;;;;;1.98;0.85;;;27.70;47.80;;;;;;5010315;28;20041;-70
2022/07/17 11:55:36;;;;;;;2.85;0.80;;;27.90;47.20;;;;;;5010642;28;20490;-70
2022/07/17 11:58:02;;;;;;;2.88;0.80;;;28.00;48.50;;;;;;5023299;28;20103;-70
2022/07/17 12:00:28;;;;;;;2.85;0.80;;;28.10;47.70;;;;;;5009198;28;20046;-70
2022/07/17 12:03:05;;;;;;;2.30;0.70;;;28.30;47.50;;;;;;5025212;28;20107;-70
2022/07/17 12:05:34;;;;;;;3.35;0.65;;;28.40;46.80;;;;;;5002026;28;20070;-70
2022/07/17 12:08:00;;;;;;;2.83;0.88;;;28.30;47.40;;;;;;4986116;28;20049;-69
2022/07/17 12:10:29;;;;;;;2.58;0.80;;;28.40;47.30;;;;;;5008654;28;20049;-68
2022/07/17 12:13:01;;;;;;;2.47;1.00;;;28.40;47.60;;;;;;5006809;28;20535;-72
2022/07/17 12:15:48;;;;;;;3.65;0.88;;;28.80;48.50;;;;;;4995488;28;20398;-71
2022/07/17 12:18:28;;;;;;;2.40;0.95;;;29.10;46.20;;;;;;5006847;28;20662;-71
2022/07/17 12:20:58;;;;;;;1.95;0.82;;;29.00;46.50;;;;;;4996819;28;20061;-71
2022/07/17 12:23:30;;;;;;;3.10;1.02;;;29.00;46.40;;;;;;5007532;28;20102;-74
2022/07/17 12:26:16;;;;;;;2.63;1.10;;;28.70;45.20;;;;;;4991475;28;20054;-72
2022/07/17 12:28:43;;;;;;;2.72;0.90;;;28.70;45.70;;;;;;4987994;28;20081;-73
2022/07/17 12:31:11;;;;;;;2.10;1.27;;;28.70;47.60;;;;;;4991487;28;20096;-71
2022/07/17 12:33:37;;;;;;;3.63;1.50;;;29.00;45.60;;;;;;5010794;28;20140;-71
2022/07/17 12:36:02;;;;;;;2.78;1.20;;;29.20;45.90;;;;;;5008918;28;20085;-71
2022/07/17 12:38:28;;;;;;;2.08;1.10;;;29.20;45.20;;;;;;5022081;28;20249;-70
2022/07/17 12:40:54;;;;;;;2.20;1.00;;;29.30;45.00;;;;;;5011672;28;20557;-71
2022/07/17 12:43:20;;;;;;;3.10;1.10;;;29.00;43.50;;;;;;4994202;28;20054;-71
2022/07/17 12:45:46;;;;;;;3.40;1.42;;;28.80;47.10;;;;;;5029098;28;20050;-71
2022/07/17 12:48:11;;;;;;;3.45;1.40;;;28.90;44.30;;;;;;5011411;28;20048;-71